sensor_id;sensor_type;location;lat;lon;timestamp;pressure;altitude;pressure_sealevel;temperature;humidity
77067;BME280;65994;50.378;15.470;2023-01-20T19:27:46;98971.56;;;4.49;58.95
77067;BME280;65994;50.378;15.470;2023-01-20T19:30:13;98974.28;;;2.95;63.63
77067;BME280;65994;50.378;15.470;2023-01-20T19:32:39;98972.63;;;1.96;66.93
77067;BME280;65994;50.378;15.470;2023-01-20T19:35:07;98981.22;;;0.91;70.66
77067;BME280;65994;50.378;15.470;2023-01-20T19:37:34;98984.88;;;0.24;73.70
77067;BME280;65994;50.378;15.470;2023-01-20T19:40:00;98984.38;;;-0.13;75.68
77067;BME280;65994;50.378;15.470;2023-01-20T19:42:26;98994.56;;;-0.54;76.83
77067;BME280;65994;50.378;15.470;2023-01-20T19:44:53;99002.94;;;-0.74;77.38
77067;BME280;65994;50.378;15.470;2023-01-20T19:47:19;98997.31;;;-0.91;78.11
77067;BME280;65994;50.378;15.470;2023-01-20T19:49:45;98996.91;;;-1.00;80.10
77067;BME280;65994;50.378;15.470;2023-01-20T19:52:11;99000.16;;;-1.03;80.40
77067;BME280;65994;50.378;15.470;2023-01-20T19:54:38;99008.13;;;-1.11;81.01
77067;BME280;65994;50.378;15.470;2023-01-20T19:57:05;99000.69;;;-1.10;80.88
77067;BME280;65994;50.378;15.470;2023-01-20T19:59:32;99002.66;;;-1.03;80.48
77067;BME280;65994;50.378;15.470;2023-01-20T20:01:58;98998.47;;;-1.04;81.92
77067;BME280;65994;50.378;15.470;2023-01-20T20:04:24;99002.59;;;-1.04;81.26
77067;BME280;65994;50.378;15.470;2023-01-20T20:06:51;98996.72;;;-1.05;81.97
77067;BME280;65994;50.378;15.470;2023-01-20T20:09:19;99003.44;;;-1.04;81.42
77067;BME280;65994;50.378;15.470;2023-01-20T20:11:46;98998.34;;;-1.07;82.15
77067;BME280;65994;50.378;15.470;2023-01-20T20:14:15;99001.63;;;-1.08;81.96
77067;BME280;65994;50.378;15.470;2023-01-20T20:16:42;98996.50;;;-1.11;82.37
77067;BME280;65994;50.378;15.470;2023-01-20T20:19:11;98999.03;;;-1.09;82.56
77067;BME280;65994;50.378;15.470;2023-01-20T20:21:38;98990.81;;;-1.08;81.86
77067;BME280;65994;50.378;15.470;2023-01-20T20:24:04;98991.81;;;-1.03;82.04
77067;BME280;65994;50.378;15.470;2023-01-20T20:26:35;98996.06;;;-1.00;81.36
77067;BME280;65994;50.378;15.470;2023-01-20T20:29:04;98995.00;;;-1.07;81.51
77067;BME280;65994;50.378;15.470;2023-01-20T20:31:31;98987.47;;;-1.09;81.63
77067;BME280;65994;50.378;15.470;2023-01-20T20:34:00;99003.31;;;-1.07;81.59
77067;BME280;65994;50.378;15.470;2023-01-20T20:36:27;98993.22;;;-1.10;82.11
77067;BME280;65994;50.378;15.470;2023-01-20T20:38:57;98980.69;;;-1.11;82.01
77067;BME280;65994;50.378;15.470;2023-01-20T20:41:24;98985.50;;;-1.16;81.38
77067;BME280;65994;50.378;15.470;2023-01-20T20:43:53;98987.16;;;-1.16;81.78
77067;BME280;65994;50.378;15.470;2023-01-20T20:46:20;98979.47;;;-1.21;81.68
77067;BME280;65994;50.378;15.470;2023-01-20T20:48:46;98980.19;;;-1.23;82.08
77067;BME280;65994;50.378;15.470;2023-01-20T20:51:15;98981.94;;;-1.22;82.69
77067;BME280;65994;50.378;15.470;2023-01-20T20:53:42;98979.47;;;-1.21;82.93
77067;BME280;65994;50.378;15.470;2023-01-20T20:56:14;98981.94;;;-1.22;82.50
77067;BME280;65994;50.378;15.470;2023-01-20T20:58:43;98983.44;;;-1.26;81.49
77067;BME280;65994;50.378;15.470;2023-01-20T21:01:11;98978.38;;;-1.28;82.11
77067;BME280;65994;50.378;15.470;2023-01-20T21:03:37;98977.34;;;-1.33;81.80
77067;BME280;65994;50.378;15.470;2023-01-20T21:06:04;98981.38;;;-1.36;82.92
77067;BME280;65994;50.378;15.470;2023-01-20T21:08:31;98983.69;;;-1.41;81.46
77067;BME280;65994;50.378;15.470;2023-01-20T21:10:58;98977.72;;;-1.44;82.43
77067;BME280;65994;50.378;15.470;2023-01-20T21:13:26;98976.06;;;-1.44;82.57
77067;BME280;65994;50.378;15.470;2023-01-20T21:15:57;98980.03;;;-1.49;81.82
77067;BME280;65994;50.378;15.470;2023-01-20T21:18:27;98994.13;;;-1.49;82.49
77067;BME280;65994;50.378;15.470;2023-01-20T21:20:57;98985.78;;;-1.50;81.47
77067;BME280;65994;50.378;15.470;2023-01-20T21:23:25;98990.69;;;-1.51;81.74
77067;BME280;65994;50.378;15.470;2023-01-20T21:25:52;98994.59;;;-1.58;81.97
77067;BME280;65994;50.378;15.470;2023-01-20T21:28:18;99004.56;;;-1.58;82.43
77067;BME280;65994;50.378;15.470;2023-01-20T21:30:45;99005.50;;;-1.55;81.64
77067;BME280;65994;50.378;15.470;2023-01-20T21:33:12;99007.16;;;-1.55;81.63
77067;BME280;65994;50.378;15.470;2023-01-20T21:35:45;99003.72;;;-1.59;81.79
77067;BME280;65994;50.378;15.470;2023-01-20T21:38:12;98998.66;;;-1.60;81.04
77067;BME280;65994;50.378;15.470;2023-01-20T21:40:39;99000.28;;;-1.61;81.31
77067;BME280;65994;50.378;15.470;2023-01-20T21:43:06;99000.28;;;-1.61;80.67
77067;BME280;65994;50.378;15.470;2023-01-20T21:45:54;98998.66;;;-1.60;80.43
77067;BME280;65994;50.378;15.470;2023-01-20T21:48:21;98999.50;;;-1.60;81.14
77067;BME280;65994;50.378;15.470;2023-01-20T21:51:09;99002.91;;;-1.58;80.96
77067;BME280;65994;50.378;15.470;2023-01-20T21:53:54;98998.03;;;-1.55;81.51
77067;BME280;65994;50.378;15.470;2023-01-20T21:56:20;98992.41;;;-1.50;81.40
77067;BME280;65994;50.378;15.470;2023-01-20T21:58:46;98994.22;;;-1.46;81.06
77067;BME280;65994;50.378;15.470;2023-01-20T22:01:12;99002.63;;;-1.44;80.51
77067;BME280;65994;50.378;15.470;2023-01-20T22:03:39;98999.16;;;-1.48;80.66
77067;BME280;65994;50.378;15.470;2023-01-20T22:06:05;98995.03;;;-1.47;80.31
77067;BME280;65994;50.378;15.470;2023-01-20T22:08:31;98995.03;;;-1.47;79.65
77067;BME280;65994;50.378;15.470;2023-01-20T22:10:58;98996.91;;;-1.42;79.84
77067;BME280;65994;50.378;15.470;2023-01-20T22:13:26;99005.91;;;-1.45;80.29
77067;BME280;65994;50.378;15.470;2023-01-20T22:15:53;99003.31;;;-1.48;80.38
77067;BME280;65994;50.378;15.470;2023-01-20T22:18:19;98997.47;;;-1.49;81.07
77067;BME280;65994;50.378;15.470;2023-01-20T22:20:46;98999.88;;;-1.50;80.46
77067;BME280;65994;50.378;15.470;2023-01-20T22:23:12;99000.81;;;-1.48;79.56
77067;BME280;65994;50.378;15.470;2023-01-20T22:25:39;98991.88;;;-1.43;80.24
77067;BME280;65994;50.378;15.470;2023-01-20T22:28:05;98992.00;;;-1.40;79.91
77067;BME280;65994;50.378;15.470;2023-01-20T22:30:31;98996.06;;;-1.42;80.34
77067;BME280;65994;50.378;15.470;2023-01-20T22:32:57;98996.84;;;-1.43;79.13
77067;BME280;65994;50.378;15.470;2023-01-20T22:35:24;98998.88;;;-1.35;79.84
77067;BME280;65994;50.378;15.470;2023-01-20T22:37:50;98996.44;;;-1.33;80.43
77067;BME280;65994;50.378;15.470;2023-01-20T22:40:17;98999.84;;;-1.31;79.19
77067;BME280;65994;50.378;15.470;2023-01-20T22:42:43;99001.69;;;-1.27;79.86
77067;BME280;65994;50.378;15.470;2023-01-20T22:45:10;98999.28;;;-1.24;79.85
77067;BME280;65994;50.378;15.470;2023-01-20T22:47:37;98996.09;;;-1.21;79.32
77067;BME280;65994;50.378;15.470;2023-01-20T22:50:03;98997.78;;;-1.20;80.75
77067;BME280;65994;50.378;15.470;2023-01-20T22:52:29;99004.47;;;-1.19;80.66
77067;BME280;65994;50.378;15.470;2023-01-20T22:54:55;99010.38;;;-1.17;79.95
77067;BME280;65994;50.378;15.470;2023-01-20T22:57:22;99005.44;;;-1.16;80.34
77067;BME280;65994;50.378;15.470;2023-01-20T22:59:48;99008.66;;;-1.18;80.80
77067;BME280;65994;50.378;15.470;2023-01-20T23:02:15;99005.41;;;-1.17;81.05
77067;BME280;65994;50.378;15.470;2023-01-20T23:04:41;99003.13;;;-1.11;79.73
77067;BME280;65994;50.378;15.470;2023-01-20T23:07:07;99007.94;;;-1.16;81.17
77067;BME280;65994;50.378;15.470;2023-01-20T23:09:33;98992.97;;;-1.16;80.94
77067;BME280;65994;50.378;15.470;2023-01-20T23:11:59;98997.16;;;-1.15;80.61
77067;BME280;65994;50.378;15.470;2023-01-20T23:14:25;98993.88;;;-1.14;81.66
77067;BME280;65994;50.378;15.470;2023-01-20T23:17:10;98988.03;;;-1.14;79.28
77067;BME280;65994;50.378;15.470;2023-01-20T23:19:36;98983.19;;;-1.11;80.77
77067;BME280;65994;50.378;15.470;2023-01-20T23:22:03;98984.88;;;-1.10;80.55
77067;BME280;65994;50.378;15.470;2023-01-20T23:24:29;98986.56;;;-1.09;79.87
77067;BME280;65994;50.378;15.470;2023-01-20T23:26:55;98985.81;;;-1.08;79.65
77067;BME280;65994;50.378;15.470;2023-01-20T23:29:21;98986.84;;;-1.03;79.15
77067;BME280;65994;50.378;15.470;2023-01-20T23:31:48;98984.44;;;-1.00;80.16
77067;BME280;65994;50.378;15.470;2023-01-20T23:34:14;98994.41;;;-1.00;79.03
77067;BME280;65994;50.378;15.470;2023-01-20T23:36:40;98991.44;;;-0.91;78.97
77067;BME280;65994;50.378;15.470;2023-01-20T23:39:08;98992.31;;;-0.91;78.27
77067;BME280;65994;50.378;15.470;2023-01-20T23:41:34;98993.25;;;-0.87;79.27
77067;BME280;65994;50.378;15.470;2023-01-20T23:44:00;98993.38;;;-0.84;78.61
77067;BME280;65994;50.378;15.470;2023-01-20T23:46:27;98996.84;;;-0.81;76.90
77067;BME280;65994;50.378;15.470;2023-01-20T23:48:54;99001.06;;;-0.80;76.59
77067;BME280;65994;50.378;15.470;2023-01-20T23:51:20;99005.25;;;-0.79;76.64
77067;BME280;65994;50.378;15.470;2023-01-20T23:53:46;99016.19;;;-0.75;76.25
77067;BME280;65994;50.378;15.470;2023-01-20T23:56:15;99008.72;;;-0.75;76.65
77067;BME280;65994;50.378;15.470;2023-01-20T23:58:42;99011.22;;;-0.75;77.39
